Madison Heights, VA (24572)

7:51 AM EDT on September 04, 2015 (GMT -0400)
Concord Turnpike | | Change Station
CLOSE
Current Station
Personal Weather Station
Location: Lynchburg, VA
Elevation: 543 ft
Nearby Weather Stations

Elev 543 ft 37.40 °N, 79.11 °W | Updated 1 minute ago

Partly Cloudy
Partly Cloudy
69.0 °F
Feels Like 69.0 °F
N
0.2
Wind Variable Wind from NNW
Gusts 1.3 mph

Today
High -- | Low -- °F
--% Chance of Precip.
Yesterday
High -- | Low -- °F
Precip. -- in
6:49 AM 7:41 PM
Waning Gibbous, 60% visible
Pressure 29.98 in
Visibility 6.0 miles
Clouds Clear
Dew Point 66 °F
Humidity 89%
Rainfall 0.00 in
Snow Depth Not available.
UV 0 out of 12
Pollen 8.60 out of 12
Air Quality Not available.
Flu Activity Not available.
METAR KLYH 041054Z 00000KT 6SM BR CLR 19/18 A3001 RMK AO2 SLP152 T01890183
Pressure 29.98 in
Visibility 6.0 miles
Clouds Clear
Dew Point 66 °F
Humidity 89%
Rainfall 0.00 in
Snow Depth Not available.
UV 0 out of 12
Pollen 8.60 out of 12
Air Quality Not available.
Flu Activity Not available.
METAR KLYH 041054Z 00000KT 6SM BR CLR 19/18 A3001 RMK AO2 SLP152 T01890183

10-Day Weather Forecast

×

Almanac

Astronomy

Sep. 04, 2015 Rise Set
Actual Time
Civil Twilight
Nautical Twilight
Astronomical Twilight
Moon
Length of Visible Light
Length of Day
Tomorrow will be .
, % of the Moon is Illuminated

Today's Extremes

State Highs State Lows

Community

WunderPhotos

Upload Photos

1,852,157 photos uploaded!

WunderBlogs® & News

Nearby

Air Quality

  Air Quality AQ Index Pollutant
Not available.

Snow Depth

Station Depth Elevation

Earthquake Activity

City Distance Mag. Time & Date
Minimum magnitude displayed is 2.5.

Coastal Water Temperatures

Place Temperature

Stations

Nearby Weather Stations

Station Location Temp. Windchill Dew Point Humidity Wind Precip. Elev Updated Type